Terminal Aerodrome Forecast
Issued by NWS Chicago, IL

Home | Current Version | Previous Version | Graphics & Text | Print | Product List | Glossary On
Versions: 1 2 3 4 5 6 7 8 9 10 11 12 13 14 15 16 17 18 19 20 21 22 23 24 25 26 27
940
FTUS43 KLOT 192335
TAFRFD
TAF
KRFD 192335Z 2000/2024 07012G18KT P6SM BKN015 OVC025
     FM201200 08012G18KT 6SM -SHRA BR VCTS SCT007 OVC015CB
      TEMPO 2012/2015 2SM TSRA BR OVC007CB
     FM201700 11013G20KT 6SM BR OVC008
     FM202100 12012KT P6SM BKN015=

USA.gov is the U.S. government's official web portal to all federal, state and local government web resources and services.